9NABU VNKT-VNLK
Flight info
| Callsign | 9NABU |
|---|---|
| Flight time | 0h 32m |
| Altitude | 11000 |
| Route | KIMTI FLUFFY |
| Aircraft | DHC6/L-SDFGR/C |
Departure
| Time | 2026-04-14 16:42 |
|---|---|
| Airport | Tribhuvan International Airport (VNKT) |
Arrival
| Time | 2026-04-14 17:14 |
|---|---|
| Airport | Tenzing-Hillary Airport (VNLK) |
| Time | Latitude | Longitude | Altitude | Speed | Heading |
|---|---|---|---|---|---|
| 2026-04-14 15:56 | 27.70613 | 85.35968 | 4383 ft | 0 kts | 62° |
| 2026-04-14 16:34 | 27.70614 | 85.35970 | 4383 ft | 1 kts | 62° |
| 2026-04-14 16:34 | 27.70613 | 85.35983 | 4384 ft | 4 kts | 117° |
| 2026-04-14 16:34 | 27.70567 | 85.36016 | 4383 ft | 11 kts | 162° |
| 2026-04-14 16:34 | 27.70468 | 85.36025 | 4381 ft | 17 kts | 182° |
| 2026-04-14 16:35 | 27.70346 | 85.36050 | 4378 ft | 19 kts | 160° |
| 2026-04-14 16:35 | 27.70245 | 85.36063 | 4369 ft | 14 kts | 202° |
| 2026-04-14 16:35 | 27.70141 | 85.36015 | 4370 ft | 16 kts | 201° |
| 2026-04-14 16:35 | 27.70027 | 85.35962 | 4367 ft | 19 kts | 202° |
| 2026-04-14 16:36 | 27.69896 | 85.35904 | 4364 ft | 21 kts | 202° |
| 2026-04-14 16:36 | 27.69774 | 85.35846 | 4363 ft | 17 kts | 198° |
| 2026-04-14 16:36 | 27.69663 | 85.35797 | 4361 ft | 17 kts | 202° |
| 2026-04-14 16:36 | 27.69559 | 85.35752 | 4353 ft | 17 kts | 201° |
| 2026-04-14 16:37 | 27.69442 | 85.35695 | 4348 ft | 20 kts | 204° |
| 2026-04-14 16:37 | 27.69314 | 85.35637 | 4352 ft | 20 kts | 201° |
| 2026-04-14 16:37 | 27.69194 | 85.35583 | 4345 ft | 16 kts | 202° |
| 2026-04-14 16:37 | 27.69125 | 85.35553 | 4346 ft | 10 kts | 195° |
| 2026-04-14 16:38 | 27.69098 | 85.35556 | 4345 ft | 0 kts | 144° |
| 2026-04-14 16:38 | 27.69084 | 85.35567 | 4344 ft | 6 kts | 142° |
| 2026-04-14 16:38 | 27.69064 | 85.35641 | 4340 ft | 9 kts | 41° |
| 2026-04-14 16:38 | 27.69076 | 85.35649 | 4345 ft | 0 kts | 21° |
| 2026-04-14 16:42 | 27.69147 | 85.35681 | 4338 ft | 43 kts | 22° |
| 2026-04-14 16:42 | 27.69658 | 85.35916 | 4438 ft | 105 kts | 22° |
| 2026-04-14 16:42 | 27.70421 | 85.36257 | 4742 ft | 131 kts | 20° |
| 2026-04-14 16:42 | 27.71324 | 85.36623 | 5058 ft | 141 kts | 18° |
| 2026-04-14 16:43 | 27.72056 | 85.37360 | 5367 ft | 152 kts | 69° |
| 2026-04-14 16:43 | 27.72049 | 85.38529 | 5767 ft | 147 kts | 98° |
| 2026-04-14 16:43 | 27.71918 | 85.39671 | 6194 ft | 146 kts | 100° |
| 2026-04-14 16:43 | 27.71626 | 85.40775 | 6608 ft | 147 kts | 109° |
| 2026-04-14 16:44 | 27.71321 | 85.41881 | 7020 ft | 148 kts | 106° |
| 2026-04-14 16:44 | 27.71037 | 85.42990 | 7419 ft | 144 kts | 106° |
| 2026-04-14 16:44 | 27.70768 | 85.44064 | 7796 ft | 141 kts | 106° |
| 2026-04-14 16:45 | 27.70234 | 85.46187 | 8524 ft | 141 kts | 106° |
| 2026-04-14 16:45 | 27.69962 | 85.47257 | 8884 ft | 143 kts | 106° |
| 2026-04-14 16:45 | 27.69694 | 85.48332 | 9251 ft | 143 kts | 106° |
| 2026-04-14 16:45 | 27.69415 | 85.49412 | 9615 ft | 144 kts | 106° |
| 2026-04-14 16:46 | 27.69152 | 85.50506 | 9985 ft | 144 kts | 105° |
| 2026-04-14 16:46 | 27.68888 | 85.51583 | 10341 ft | 142 kts | 106° |
| 2026-04-14 16:46 | 27.68624 | 85.52649 | 10685 ft | 141 kts | 106° |
| 2026-04-14 16:46 | 27.68352 | 85.53708 | 11032 ft | 140 kts | 106° |
| 2026-04-14 16:47 | 27.68077 | 85.54760 | 11376 ft | 140 kts | 107° |
| 2026-04-14 16:47 | 27.67809 | 85.55808 | 11716 ft | 137 kts | 106° |
| 2026-04-14 16:47 | 27.67542 | 85.56838 | 12050 ft | 136 kts | 106° |
| 2026-04-14 16:47 | 27.67293 | 85.57833 | 12373 ft | 136 kts | 106° |
| 2026-04-14 16:48 | 27.67031 | 85.58869 | 12519 ft | 140 kts | 106° |
| 2026-04-14 16:48 | 27.66753 | 85.59976 | 12645 ft | 149 kts | 106° |
| 2026-04-14 16:48 | 27.66470 | 85.61080 | 12743 ft | 143 kts | 105° |
| 2026-04-14 16:48 | 27.66178 | 85.62240 | 12847 ft | 155 kts | 105° |
| 2026-04-14 16:49 | 27.65889 | 85.63384 | 13179 ft | 150 kts | 105° |
| 2026-04-14 16:49 | 27.65605 | 85.64513 | 13462 ft | 151 kts | 105° |
| 2026-04-14 16:49 | 27.65295 | 85.65733 | 13511 ft | 170 kts | 105° |
| 2026-04-14 16:49 | 27.64958 | 85.67060 | 13576 ft | 185 kts | 105° |
| 2026-04-14 16:50 | 27.64593 | 85.68485 | 13732 ft | 187 kts | 105° |
| 2026-04-14 16:50 | 27.64239 | 85.69889 | 13949 ft | 187 kts | 106° |
| 2026-04-14 16:50 | 27.63877 | 85.71313 | 14015 ft | 193 kts | 106° |
| 2026-04-14 16:50 | 27.63500 | 85.72794 | 14085 ft | 199 kts | 105° |
| 2026-04-14 16:51 | 27.63117 | 85.74299 | 14179 ft | 201 kts | 105° |
| 2026-04-14 16:51 | 27.62728 | 85.75826 | 14222 ft | 205 kts | 105° |
| 2026-04-14 16:51 | 27.62334 | 85.77385 | 14198 ft | 207 kts | 106° |
| 2026-04-14 16:51 | 27.61933 | 85.78952 | 14180 ft | 210 kts | 105° |
| 2026-04-14 16:52 | 27.61534 | 85.80518 | 14142 ft | 203 kts | 105° |
| 2026-04-14 16:52 | 27.61146 | 85.82050 | 13964 ft | 204 kts | 106° |
| 2026-04-14 16:52 | 27.60749 | 85.83588 | 13787 ft | 204 kts | 106° |
| 2026-04-14 16:52 | 27.60355 | 85.85133 | 13586 ft | 206 kts | 105° |
| 2026-04-14 16:53 | 27.59965 | 85.86672 | 13505 ft | 202 kts | 105° |
| 2026-04-14 16:53 | 27.59580 | 85.88185 | 13502 ft | 201 kts | 105° |
| 2026-04-14 16:53 | 27.59192 | 85.89705 | 13507 ft | 201 kts | 106° |
| 2026-04-14 16:53 | 27.58802 | 85.91226 | 13510 ft | 202 kts | 106° |
| 2026-04-14 16:54 | 27.58411 | 85.92763 | 13507 ft | 207 kts | 105° |
| 2026-04-14 16:54 | 27.58009 | 85.94334 | 13515 ft | 209 kts | 106° |
| 2026-04-14 16:54 | 27.57618 | 85.95845 | 13498 ft | 194 kts | 105° |
| 2026-04-14 16:54 | 27.57271 | 85.97256 | 13479 ft | 178 kts | 105° |
| 2026-04-14 16:55 | 27.56950 | 85.98523 | 13380 ft | 160 kts | 105° |
| 2026-04-14 16:55 | 27.56627 | 85.99720 | 12967 ft | 162 kts | 107° |
| 2026-04-14 16:55 | 27.56460 | 86.00968 | 12511 ft | 161 kts | 75° |
| 2026-04-14 16:55 | 27.57052 | 86.01942 | 12088 ft | 145 kts | 20° |
| 2026-04-14 16:56 | 27.57992 | 86.01920 | 11962 ft | 144 kts | 323° |
| 2026-04-14 16:56 | 27.58434 | 86.00958 | 12090 ft | 147 kts | 271° |
| 2026-04-14 16:56 | 27.57905 | 85.99950 | 12243 ft | 165 kts | 220° |
| 2026-04-14 16:56 | 27.56738 | 85.99779 | 12472 ft | 182 kts | 172° |
| 2026-04-14 16:57 | 27.55732 | 86.00684 | 12688 ft | 192 kts | 121° |
| 2026-04-14 16:57 | 27.55482 | 86.02119 | 12924 ft | 184 kts | 92° |
| 2026-04-14 16:57 | 27.55180 | 86.03495 | 13153 ft | 179 kts | 110° |
| 2026-04-14 16:57 | 27.54779 | 86.04820 | 13365 ft | 177 kts | 106° |
| 2026-04-14 16:58 | 27.54457 | 86.06154 | 13493 ft | 176 kts | 103° |
| 2026-04-14 16:58 | 27.54151 | 86.07480 | 13485 ft | 172 kts | 104° |
| 2026-04-14 16:58 | 27.53854 | 86.08759 | 13446 ft | 166 kts | 104° |
| 2026-04-14 16:58 | 27.53565 | 86.10014 | 13440 ft | 165 kts | 104° |
| 2026-04-14 16:59 | 27.53276 | 86.11255 | 13441 ft | 162 kts | 103° |
| 2026-04-14 16:59 | 27.52992 | 86.12484 | 13440 ft | 162 kts | 104° |
| 2026-04-14 16:59 | 27.52707 | 86.13704 | 13449 ft | 160 kts | 104° |
| 2026-04-14 16:59 | 27.52423 | 86.14932 | 13444 ft | 163 kts | 103° |
| 2026-04-14 17:00 | 27.52141 | 86.16153 | 13450 ft | 161 kts | 104° |
| 2026-04-14 17:00 | 27.51855 | 86.17373 | 13457 ft | 161 kts | 103° |
| 2026-04-14 17:00 | 27.51579 | 86.18562 | 13476 ft | 156 kts | 104° |
| 2026-04-14 17:00 | 27.51306 | 86.19742 | 13476 ft | 158 kts | 104° |
| 2026-04-14 17:01 | 27.51015 | 86.21002 | 13513 ft | 173 kts | 103° |
| 2026-04-14 17:01 | 27.50704 | 86.22336 | 13516 ft | 178 kts | 104° |
| 2026-04-14 17:01 | 27.50384 | 86.23702 | 13518 ft | 182 kts | 104° |
| 2026-04-14 17:01 | 27.50062 | 86.25085 | 13517 ft | 183 kts | 105° |
| 2026-04-14 17:02 | 27.49740 | 86.26476 | 13512 ft | 183 kts | 103° |
| 2026-04-14 17:02 | 27.49710 | 86.27873 | 13505 ft | 177 kts | 81° |
| 2026-04-14 17:02 | 27.49825 | 86.29280 | 13507 ft | 184 kts | 83° |
| 2026-04-14 17:02 | 27.49913 | 86.30733 | 13512 ft | 186 kts | 84° |
| 2026-04-14 17:03 | 27.50000 | 86.32188 | 13510 ft | 187 kts | 84° |
| 2026-04-14 17:03 | 27.50090 | 86.33659 | 13508 ft | 190 kts | 83° |
| 2026-04-14 17:03 | 27.50182 | 86.35158 | 13527 ft | 193 kts | 83° |
| 2026-04-14 17:03 | 27.50273 | 86.36674 | 13522 ft | 194 kts | 84° |
| 2026-04-14 17:04 | 27.50366 | 86.38187 | 13524 ft | 194 kts | 83° |
| 2026-04-14 17:04 | 27.50430 | 86.39213 | 13518 ft | 195 kts | 84° |
| 2026-04-14 17:04 | 27.50519 | 86.40738 | 13514 ft | 195 kts | 84° |
| 2026-04-14 17:04 | 27.50608 | 86.42260 | 13519 ft | 195 kts | 83° |
| 2026-04-14 17:05 | 27.50704 | 86.43794 | 13516 ft | 197 kts | 83° |
| 2026-04-14 17:05 | 27.50799 | 86.45340 | 13512 ft | 197 kts | 84° |
| 2026-04-14 17:05 | 27.50886 | 86.46862 | 13505 ft | 192 kts | 83° |
| 2026-04-14 17:05 | 27.50980 | 86.48346 | 13512 ft | 190 kts | 83° |
| 2026-04-14 17:06 | 27.51070 | 86.49828 | 13515 ft | 189 kts | 83° |
| 2026-04-14 17:06 | 27.51152 | 86.51314 | 13513 ft | 190 kts | 84° |
| 2026-04-14 17:06 | 27.51236 | 86.52792 | 13514 ft | 188 kts | 83° |
| 2026-04-14 17:06 | 27.51326 | 86.54263 | 13520 ft | 189 kts | 83° |
| 2026-04-14 17:07 | 27.51425 | 86.55731 | 13502 ft | 184 kts | 83° |
| 2026-04-14 17:07 | 27.51511 | 86.57170 | 13530 ft | 184 kts | 85° |
| 2026-04-14 17:07 | 27.51593 | 86.58601 | 13518 ft | 183 kts | 85° |
| 2026-04-14 17:07 | 27.51688 | 86.60023 | 13519 ft | 182 kts | 85° |
| 2026-04-14 17:08 | 27.51773 | 86.61443 | 13520 ft | 182 kts | 86° |
| 2026-04-14 17:08 | 27.51844 | 86.62868 | 13454 ft | 184 kts | 86° |
| 2026-04-14 17:08 | 27.51929 | 86.64328 | 13329 ft | 189 kts | 85° |
| 2026-04-14 17:08 | 27.52012 | 86.65746 | 13145 ft | 171 kts | 85° |
| 2026-04-14 17:09 | 27.52087 | 86.67061 | 12755 ft | 166 kts | 85° |
| 2026-04-14 17:09 | 27.52161 | 86.68343 | 12355 ft | 163 kts | 85° |
| 2026-04-14 17:09 | 27.52274 | 86.69597 | 11949 ft | 158 kts | 81° |
| 2026-04-14 17:09 | 27.52647 | 86.70718 | 11526 ft | 154 kts | 47° |
| 2026-04-14 17:10 | 27.53599 | 86.71159 | 11097 ft | 152 kts | 355° |
| 2026-04-14 17:10 | 27.54545 | 86.70709 | 10711 ft | 146 kts | 329° |
| 2026-04-14 17:10 | 27.55455 | 86.70195 | 10340 ft | 146 kts | 333° |
| 2026-04-14 17:10 | 27.56370 | 86.69687 | 10041 ft | 145 kts | 333° |
| 2026-04-14 17:11 | 27.57215 | 86.69243 | 9986 ft | 124 kts | 330° |
| 2026-04-14 17:11 | 27.57921 | 86.68697 | 9744 ft | 126 kts | 331° |
| 2026-04-14 17:11 | 27.58781 | 86.68444 | 9497 ft | 128 kts | 355° |
| 2026-04-14 17:11 | 27.59616 | 86.68481 | 9393 ft | 121 kts | 5° |
| 2026-04-14 17:12 | 27.60447 | 86.68593 | 9222 ft | 121 kts | 12° |
| 2026-04-14 17:12 | 27.61268 | 86.68871 | 9058 ft | 123 kts | 17° |
| 2026-04-14 17:12 | 27.62063 | 86.69148 | 9019 ft | 116 kts | 16° |
| 2026-04-14 17:12 | 27.62896 | 86.69433 | 9124 ft | 131 kts | 15° |
| 2026-04-14 17:13 | 27.63793 | 86.69707 | 9603 ft | 134 kts | 13° |
| 2026-04-14 17:13 | 27.64766 | 86.69913 | 9597 ft | 160 kts | 9° |
| 2026-04-14 17:13 | 27.65836 | 86.70318 | 9719 ft | 163 kts | 24° |
| 2026-04-14 17:13 | 27.66801 | 86.70860 | 9620 ft | 146 kts | 26° |
| 2026-04-14 17:14 | 27.67696 | 86.71326 | 9269 ft | 136 kts | 29° |
| 2026-04-14 17:14 | 27.68283 | 86.72052 | 9127 ft | 114 kts | 67° |
| 2026-04-14 17:14 | 27.68549 | 86.72695 | 9192 ft | 85 kts | 58° |
| 2026-04-14 17:14 | 27.68743 | 86.73066 | 9381 ft | 27 kts | 60° |
| 2026-04-14 17:15 | 27.68768 | 86.73168 | 9404 ft | 5 kts | 150° |
| 2026-04-14 17:15 | 27.68752 | 86.73198 | 9404 ft | 2 kts | 302° |
| 2026-04-14 17:15 | 27.68751 | 86.73195 | 9404 ft | 0 kts | 236° |